sensor_id;sensor_type;location;lat;lon;timestamp;temperature;humidity
5059;DHT22;2548;52.050;11.036;2023-07-20T00:01:23;16.60;99.90
5059;DHT22;2548;52.050;11.036;2023-07-20T00:03:50;16.50;99.90
5059;DHT22;2548;52.050;11.036;2023-07-20T00:06:25;16.50;99.90
5059;DHT22;2548;52.050;11.036;2023-07-20T00:08:53;16.50;99.90
5059;DHT22;2548;52.050;11.036;2023-07-20T00:11:21;16.40;99.90
5059;DHT22;2548;52.050;11.036;2023-07-20T00:13:51;16.40;99.90
5059;DHT22;2548;52.050;11.036;2023-07-20T00:16:21;16.40;99.90
5059;DHT22;2548;52.050;11.036;2023-07-20T00:18:52;16.40;99.90
5059;DHT22;2548;52.050;11.036;2023-07-20T00:21:19;16.40;99.90
5059;DHT22;2548;52.050;11.036;2023-07-20T00:23:51;16.20;99.90
5059;DHT22;2548;52.050;11.036;2023-07-20T00:26:22;16.20;99.90
5059;DHT22;2548;52.050;11.036;2023-07-20T00:28:52;16.20;99.90
5059;DHT22;2548;52.050;11.036;2023-07-20T00:31:32;16.10;99.90
5059;DHT22;2548;52.050;11.036;2023-07-20T00:34:05;16.10;99.90
5059;DHT22;2548;52.050;11.036;2023-07-20T00:36:33;16.10;99.90
5059;DHT22;2548;52.050;11.036;2023-07-20T00:39:03;16.10;99.90
5059;DHT22;2548;52.050;11.036;2023-07-20T00:41:31;16.00;99.90
5059;DHT22;2548;52.050;11.036;2023-07-20T00:44:02;16.00;99.90
5059;DHT22;2548;52.050;11.036;2023-07-20T00:46:41;15.90;99.90
5059;DHT22;2548;52.050;11.036;2023-07-20T00:49:15;15.90;99.90
5059;DHT22;2548;52.050;11.036;2023-07-20T00:51:58;15.80;99.90
5059;DHT22;2548;52.050;11.036;2023-07-20T00:54:46;15.80;99.90
5059;DHT22;2548;52.050;11.036;2023-07-20T00:57:15;15.70;99.90
5059;DHT22;2548;52.050;11.036;2023-07-20T00:59:51;15.70;99.90
5059;DHT22;2548;52.050;11.036;2023-07-20T01:02:19;15.70;99.90
5059;DHT22;2548;52.050;11.036;2023-07-20T01:04:49;15.70;99.90
5059;DHT22;2548;52.050;11.036;2023-07-20T01:07:34;15.70;99.90
5059;DHT22;2548;52.050;11.036;2023-07-20T01:10:20;15.60;99.90
5059;DHT22;2548;52.050;11.036;2023-07-20T01:12:54;15.60;99.90
5059;DHT22;2548;52.050;11.036;2023-07-20T01:15:25;15.60;99.90
5059;DHT22;2548;52.050;11.036;2023-07-20T01:17:53;15.60;99.90
5059;DHT22;2548;52.050;11.036;2023-07-20T01:20:22;15.70;99.90
5059;DHT22;2548;52.050;11.036;2023-07-20T01:26:11;15.60;99.90
5059;DHT22;2548;52.050;11.036;2023-07-20T01:29:05;15.50;99.90
5059;DHT22;2548;52.050;11.036;2023-07-20T01:31:44;15.50;99.90
5059;DHT22;2548;52.050;11.036;2023-07-20T01:34:17;15.50;99.90
5059;DHT22;2548;52.050;11.036;2023-07-20T01:36:46;15.40;99.90
5059;DHT22;2548;52.050;11.036;2023-07-20T01:39:16;15.40;99.90
5059;DHT22;2548;52.050;11.036;2023-07-20T01:41:51;15.40;99.90
5059;DHT22;2548;52.050;11.036;2023-07-20T01:44:28;15.40;99.90
5059;DHT22;2548;52.050;11.036;2023-07-20T01:47:00;15.50;99.90
5059;DHT22;2548;52.050;11.036;2023-07-20T01:49:33;15.40;99.90
5059;DHT22;2548;52.050;11.036;2023-07-20T01:52:01;15.40;99.90
5059;DHT22;2548;52.050;11.036;2023-07-20T01:54:30;15.40;99.90
5059;DHT22;2548;52.050;11.036;2023-07-20T01:57:04;15.40;99.90
5059;DHT22;2548;52.050;11.036;2023-07-20T01:59:32;15.40;99.90
5059;DHT22;2548;52.050;11.036;2023-07-20T02:02:11;15.40;99.90
5059;DHT22;2548;52.050;11.036;2023-07-20T02:04:44;15.40;99.90
5059;DHT22;2548;52.050;11.036;2023-07-20T02:07:15;15.40;99.90
5059;DHT22;2548;52.050;11.036;2023-07-20T02:09:42;15.40;99.90
5059;DHT22;2548;52.050;11.036;2023-07-20T02:12:10;15.40;99.90
5059;DHT22;2548;52.050;11.036;2023-07-20T02:14:37;15.30;99.90
5059;DHT22;2548;52.050;11.036;2023-07-20T02:17:09;15.40;99.90
5059;DHT22;2548;52.050;11.036;2023-07-20T02:19:41;15.40;99.90
5059;DHT22;2548;52.050;11.036;2023-07-20T02:22:17;15.40;99.90
5059;DHT22;2548;52.050;11.036;2023-07-20T02:24:47;15.40;99.90
5059;DHT22;2548;52.050;11.036;2023-07-20T02:29:53;15.40;99.90
5059;DHT22;2548;52.050;11.036;2023-07-20T02:32:25;15.40;99.90
5059;DHT22;2548;52.050;11.036;2023-07-20T02:34:52;15.50;99.90
5059;DHT22;2548;52.050;11.036;2023-07-20T02:37:23;15.50;99.90
5059;DHT22;2548;52.050;11.036;2023-07-20T02:39:51;15.50;99.90
5059;DHT22;2548;52.050;11.036;2023-07-20T02:42:18;15.50;99.90
5059;DHT22;2548;52.050;11.036;2023-07-20T02:44:48;15.40;99.90
5059;DHT22;2548;52.050;11.036;2023-07-20T02:47:26;15.40;99.90
5059;DHT22;2548;52.050;11.036;2023-07-20T02:50:00;15.30;99.90
5059;DHT22;2548;52.050;11.036;2023-07-20T02:52:34;15.30;99.90
5059;DHT22;2548;52.050;11.036;2023-07-20T02:55:11;15.20;99.90
5059;DHT22;2548;52.050;11.036;2023-07-20T02:57:44;15.30;99.90
5059;DHT22;2548;52.050;11.036;2023-07-20T03:00:15;15.20;99.90
5059;DHT22;2548;52.050;11.036;2023-07-20T03:02:47;15.20;99.90
5059;DHT22;2548;52.050;11.036;2023-07-20T03:05:15;15.10;99.90
5059;DHT22;2548;52.050;11.036;2023-07-20T03:07:43;15.10;99.90
5059;DHT22;2548;52.050;11.036;2023-07-20T03:10:11;15.00;99.90
5059;DHT22;2548;52.050;11.036;2023-07-20T03:12:38;15.00;99.90
5059;DHT22;2548;52.050;11.036;2023-07-20T03:15:08;15.00;99.90
5059;DHT22;2548;52.050;11.036;2023-07-20T03:17:36;14.90;99.90
5059;DHT22;2548;52.050;11.036;2023-07-20T03:20:06;14.90;99.90
5059;DHT22;2548;52.050;11.036;2023-07-20T03:22:36;14.90;99.90
5059;DHT22;2548;52.050;11.036;2023-07-20T03:25:07;14.90;99.90
5059;DHT22;2548;52.050;11.036;2023-07-20T03:27:35;14.90;99.90
5059;DHT22;2548;52.050;11.036;2023-07-20T03:30:18;14.90;99.90
5059;DHT22;2548;52.050;11.036;2023-07-20T03:32:48;14.90;99.90
5059;DHT22;2548;52.050;11.036;2023-07-20T03:35:23;14.90;99.90
5059;DHT22;2548;52.050;11.036;2023-07-20T03:37:51;14.90;99.90
5059;DHT22;2548;52.050;11.036;2023-07-20T03:40:31;14.90;99.90
5059;DHT22;2548;52.050;11.036;2023-07-20T03:43:01;14.90;99.90
5059;DHT22;2548;52.050;11.036;2023-07-20T03:45:29;14.80;99.90
5059;DHT22;2548;52.050;11.036;2023-07-20T03:47:56;14.80;99.90
5059;DHT22;2548;52.050;11.036;2023-07-20T03:50:28;14.80;99.90
5059;DHT22;2548;52.050;11.036;2023-07-20T03:52:55;14.80;99.90
5059;DHT22;2548;52.050;11.036;2023-07-20T03:55:23;14.80;99.90
5059;DHT22;2548;52.050;11.036;2023-07-20T03:58:02;14.80;99.90
5059;DHT22;2548;52.050;11.036;2023-07-20T04:00:36;14.80;99.90
5059;DHT22;2548;52.050;11.036;2023-07-20T04:03:09;14.90;99.90
5059;DHT22;2548;52.050;11.036;2023-07-20T04:05:38;14.90;99.90
5059;DHT22;2548;52.050;11.036;2023-07-20T04:08:05;14.90;99.90
5059;DHT22;2548;52.050;11.036;2023-07-20T04:10:32;14.80;99.90
5059;DHT22;2548;52.050;11.036;2023-07-20T04:13:08;14.80;99.90
5059;DHT22;2548;52.050;11.036;2023-07-20T04:15:35;14.80;99.90
5059;DHT22;2548;52.050;11.036;2023-07-20T04:18:08;14.80;99.90
5059;DHT22;2548;52.050;11.036;2023-07-20T04:20:42;14.90;99.90
5059;DHT22;2548;52.050;11.036;2023-07-20T04:23:19;14.90;99.90
5059;DHT22;2548;52.050;11.036;2023-07-20T04:25:46;14.90;99.90
5059;DHT22;2548;52.050;11.036;2023-07-20T04:28:14;14.90;99.90
5059;DHT22;2548;52.050;11.036;2023-07-20T04:30:49;15.00;99.90
5059;DHT22;2548;52.050;11.036;2023-07-20T04:33:16;15.00;99.90
5059;DHT22;2548;52.050;11.036;2023-07-20T04:35:48;15.00;99.90
5059;DHT22;2548;52.050;11.036;2023-07-20T04:38:18;15.10;99.90
5059;DHT22;2548;52.050;11.036;2023-07-20T04:40:50;15.10;99.90
5059;DHT22;2548;52.050;11.036;2023-07-20T04:43:28;15.10;99.90
5059;DHT22;2548;52.050;11.036;2023-07-20T04:45:59;15.20;99.90
5059;DHT22;2548;52.050;11.036;2023-07-20T04:48:30;15.20;99.90
5059;DHT22;2548;52.050;11.036;2023-07-20T04:51:05;15.30;99.90
5059;DHT22;2548;52.050;11.036;2023-07-20T04:53:36;15.30;99.90
5059;DHT22;2548;52.050;11.036;2023-07-20T04:56:08;15.30;99.90
5059;DHT22;2548;52.050;11.036;2023-07-20T04:58:36;15.40;99.90
5059;DHT22;2548;52.050;11.036;2023-07-20T05:01:06;15.40;99.90
5059;DHT22;2548;52.050;11.036;2023-07-20T05:03:42;15.40;99.90
5059;DHT22;2548;52.050;11.036;2023-07-20T05:06:17;15.40;99.90
5059;DHT22;2548;52.050;11.036;2023-07-20T05:08:45;15.40;99.90
5059;DHT22;2548;52.050;11.036;2023-07-20T05:11:12;15.40;99.90
5059;DHT22;2548;52.050;11.036;2023-07-20T05:13:46;15.40;99.90
5059;DHT22;2548;52.050;11.036;2023-07-20T05:16:16;15.40;99.90
5059;DHT22;2548;52.050;11.036;2023-07-20T05:18:44;15.50;99.90
5059;DHT22;2548;52.050;11.036;2023-07-20T05:21:16;15.40;99.90
5059;DHT22;2548;52.050;11.036;2023-07-20T05:23:44;15.50;99.90
5059;DHT22;2548;52.050;11.036;2023-07-20T05:26:16;15.50;99.90
5059;DHT22;2548;52.050;11.036;2023-07-20T05:28:47;15.50;99.90
5059;DHT22;2548;52.050;11.036;2023-07-20T05:31:14;15.50;99.90
5059;DHT22;2548;52.050;11.036;2023-07-20T05:33:53;15.60;99.90
5059;DHT22;2548;52.050;11.036;2023-07-20T05:36:24;15.70;99.90
5059;DHT22;2548;52.050;11.036;2023-07-20T05:38:52;15.70;99.90
5059;DHT22;2548;52.050;11.036;2023-07-20T05:41:22;15.80;99.90
5059;DHT22;2548;52.050;11.036;2023-07-20T05:43:52;15.90;99.90
5059;DHT22;2548;52.050;11.036;2023-07-20T05:46:20;15.90;99.90
5059;DHT22;2548;52.050;11.036;2023-07-20T05:48:47;16.00;99.90
5059;DHT22;2548;52.050;11.036;2023-07-20T05:51:15;16.10;99.90
5059;DHT22;2548;52.050;11.036;2023-07-20T05:53:44;16.20;99.90
5059;DHT22;2548;52.050;11.036;2023-07-20T05:56:17;16.30;99.90
5059;DHT22;2548;52.050;11.036;2023-07-20T05:58:44;16.30;99.90
5059;DHT22;2548;52.050;11.036;2023-07-20T06:01:14;16.30;99.90
5059;DHT22;2548;52.050;11.036;2023-07-20T06:03:42;16.40;99.90
5059;DHT22;2548;52.050;11.036;2023-07-20T06:06:10;16.50;99.90
5059;DHT22;2548;52.050;11.036;2023-07-20T06:08:41;16.60;99.90
5059;DHT22;2548;52.050;11.036;2023-07-20T06:11:10;16.70;99.90
5059;DHT22;2548;52.050;11.036;2023-07-20T06:13:46;16.80;99.90
5059;DHT22;2548;52.050;11.036;2023-07-20T06:16:13;16.90;99.90
5059;DHT22;2548;52.050;11.036;2023-07-20T06:18:44;16.90;99.90
5059;DHT22;2548;52.050;11.036;2023-07-20T06:21:11;16.90;99.90
5059;DHT22;2548;52.050;11.036;2023-07-20T06:23:42;16.90;99.90
5059;DHT22;2548;52.050;11.036;2023-07-20T06:26:10;16.90;99.90
5059;DHT22;2548;52.050;11.036;2023-07-20T06:28:44;16.80;99.90
5059;DHT22;2548;52.050;11.036;2023-07-20T06:31:14;16.90;99.90
5059;DHT22;2548;52.050;11.036;2023-07-20T06:34:02;16.90;99.90
5059;DHT22;2548;52.050;11.036;2023-07-20T06:36:30;16.90;99.90
5059;DHT22;2548;52.050;11.036;2023-07-20T06:39:00;16.80;99.90
5059;DHT22;2548;52.050;11.036;2023-07-20T06:41:30;16.70;99.90
5059;DHT22;2548;52.050;11.036;2023-07-20T06:43:57;16.70;99.90
5059;DHT22;2548;52.050;11.036;2023-07-20T06:46:27;16.80;99.90
5059;DHT22;2548;52.050;11.036;2023-07-20T06:49:01;16.70;99.90
5059;DHT22;2548;52.050;11.036;2023-07-20T06:51:38;16.60;99.90
5059;DHT22;2548;52.050;11.036;2023-07-20T06:54:10;16.60;99.90
5059;DHT22;2548;52.050;11.036;2023-07-20T06:56:39;16.60;99.90
5059;DHT22;2548;52.050;11.036;2023-07-20T06:59:07;16.50;99.90
5059;DHT22;2548;52.050;11.036;2023-07-20T07:01:34;16.60;99.90
5059;DHT22;2548;52.050;11.036;2023-07-20T07:04:05;16.60;99.90
5059;DHT22;2548;52.050;11.036;2023-07-20T07:06:38;16.50;99.90
5059;DHT22;2548;52.050;11.036;2023-07-20T07:09:09;16.50;99.90
5059;DHT22;2548;52.050;11.036;2023-07-20T07:11:40;16.50;99.90
5059;DHT22;2548;52.050;11.036;2023-07-20T07:14:08;16.40;99.90
5059;DHT22;2548;52.050;11.036;2023-07-20T07:16:40;16.40;99.90
5059;DHT22;2548;52.050;11.036;2023-07-20T07:19:07;16.40;99.90
5059;DHT22;2548;52.050;11.036;2023-07-20T07:21:40;16.40;99.90
5059;DHT22;2548;52.050;11.036;2023-07-20T07:24:13;16.40;99.90
5059;DHT22;2548;52.050;11.036;2023-07-20T07:26:45;16.40;99.90
5059;DHT22;2548;52.050;11.036;2023-07-20T07:29:15;16.40;99.90
5059;DHT22;2548;52.050;11.036;2023-07-20T07:31:43;16.40;99.90
5059;DHT22;2548;52.050;11.036;2023-07-20T07:34:10;16.40;99.90
5059;DHT22;2548;52.050;11.036;2023-07-20T07:36:38;16.30;99.90
5059;DHT22;2548;52.050;11.036;2023-07-20T07:39:08;16.30;99.90
5059;DHT22;2548;52.050;11.036;2023-07-20T07:41:36;16.20;99.90
5059;DHT22;2548;52.050;11.036;2023-07-20T07:44:08;16.20;99.90
5059;DHT22;2548;52.050;11.036;2023-07-20T07:46:35;16.20;99.90
5059;DHT22;2548;52.050;11.036;2023-07-20T07:49:02;16.30;99.90
5059;DHT22;2548;52.050;11.036;2023-07-20T07:51:33;16.30;99.90
5059;DHT22;2548;52.050;11.036;2023-07-20T07:54:00;16.30;99.90
5059;DHT22;2548;52.050;11.036;2023-07-20T07:56:31;16.40;99.90
5059;DHT22;2548;52.050;11.036;2023-07-20T07:58:58;16.40;99.90
5059;DHT22;2548;52.050;11.036;2023-07-20T08:01:30;16.40;99.90
5059;DHT22;2548;52.050;11.036;2023-07-20T08:03:58;16.40;99.90
5059;DHT22;2548;52.050;11.036;2023-07-20T08:06:30;16.30;99.90
5059;DHT22;2548;52.050;11.036;2023-07-20T08:09:09;16.30;99.90
5059;DHT22;2548;52.050;11.036;2023-07-20T08:11:42;16.30;99.90
5059;DHT22;2548;52.050;11.036;2023-07-20T08:14:09;16.30;99.90
5059;DHT22;2548;52.050;11.036;2023-07-20T08:16:38;16.30;99.90
5059;DHT22;2548;52.050;11.036;2023-07-20T08:19:05;16.30;99.90
5059;DHT22;2548;52.050;11.036;2023-07-20T08:21:33;16.40;99.90
5059;DHT22;2548;52.050;11.036;2023-07-20T08:24:00;16.50;99.90
5059;DHT22;2548;52.050;11.036;2023-07-20T08:26:28;16.60;99.90
5059;DHT22;2548;52.050;11.036;2023-07-20T08:28:55;16.70;99.90
5059;DHT22;2548;52.050;11.036;2023-07-20T08:31:23;16.70;99.90
5059;DHT22;2548;52.050;11.036;2023-07-20T08:33:52;16.70;99.90
5059;DHT22;2548;52.050;11.036;2023-07-20T08:36:19;16.70;99.90
5059;DHT22;2548;52.050;11.036;2023-07-20T08:38:46;16.70;99.90
5059;DHT22;2548;52.050;11.036;2023-07-20T08:41:15;16.70;99.90
5059;DHT22;2548;52.050;11.036;2023-07-20T08:43:43;16.60;99.90
5059;DHT22;2548;52.050;11.036;2023-07-20T08:46:13;16.60;99.90
5059;DHT22;2548;52.050;11.036;2023-07-20T08:48:42;16.40;99.90
5059;DHT22;2548;52.050;11.036;2023-07-20T08:51:12;16.40;99.90
5059;DHT22;2548;52.050;11.036;2023-07-20T08:53:41;16.30;99.90
5059;DHT22;2548;52.050;11.036;2023-07-20T08:56:09;16.30;99.90
5059;DHT22;2548;52.050;11.036;2023-07-20T08:58:39;16.40;99.90
5059;DHT22;2548;52.050;11.036;2023-07-20T09:01:11;16.50;99.90
5059;DHT22;2548;52.050;11.036;2023-07-20T09:03:38;16.50;99.90
5059;DHT22;2548;52.050;11.036;2023-07-20T09:06:06;16.50;99.90
5059;DHT22;2548;52.050;11.036;2023-07-20T09:08:38;16.60;99.90
5059;DHT22;2548;52.050;11.036;2023-07-20T09:11:05;16.90;99.90
5059;DHT22;2548;52.050;11.036;2023-07-20T09:13:33;17.00;99.90
5059;DHT22;2548;52.050;11.036;2023-07-20T09:16:01;17.00;99.90
5059;DHT22;2548;52.050;11.036;2023-07-20T09:18:30;17.10;99.90
5059;DHT22;2548;52.050;11.036;2023-07-20T09:20:58;17.10;99.90
5059;DHT22;2548;52.050;11.036;2023-07-20T09:23:31;17.00;99.90
5059;DHT22;2548;52.050;11.036;2023-07-20T09:26:00;17.10;99.90
5059;DHT22;2548;52.050;11.036;2023-07-20T09:28:28;17.10;99.90
5059;DHT22;2548;52.050;11.036;2023-07-20T09:30:55;17.10;99.90
5059;DHT22;2548;52.050;11.036;2023-07-20T09:33:24;17.20;99.90
5059;DHT22;2548;52.050;11.036;2023-07-20T09:35:52;17.20;99.90
5059;DHT22;2548;52.050;11.036;2023-07-20T09:38:19;17.30;99.90
5059;DHT22;2548;52.050;11.036;2023-07-20T09:40:48;17.50;99.90
5059;DHT22;2548;52.050;11.036;2023-07-20T09:43:17;17.60;99.90
5059;DHT22;2548;52.050;11.036;2023-07-20T09:45:45;17.70;99.90
5059;DHT22;2548;52.050;11.036;2023-07-20T09:48:12;17.90;99.90
5059;DHT22;2548;52.050;11.036;2023-07-20T09:50:40;18.10;99.90
5059;DHT22;2548;52.050;11.036;2023-07-20T09:53:11;18.10;99.90
5059;DHT22;2548;52.050;11.036;2023-07-20T09:55:40;17.90;99.90
5059;DHT22;2548;52.050;11.036;2023-07-20T09:58:09;17.90;99.90
5059;DHT22;2548;52.050;11.036;2023-07-20T10:00:39;18.10;99.90
5059;DHT22;2548;52.050;11.036;2023-07-20T10:03:11;18.40;99.90
5059;DHT22;2548;52.050;11.036;2023-07-20T10:05:43;18.70;99.90
5059;DHT22;2548;52.050;11.036;2023-07-20T10:08:12;19.00;99.90
5059;DHT22;2548;52.050;11.036;2023-07-20T10:10:41;19.00;99.90
5059;DHT22;2548;52.050;11.036;2023-07-20T10:13:13;18.80;99.90
5059;DHT22;2548;52.050;11.036;2023-07-20T10:15:47;18.90;99.90
5059;DHT22;2548;52.050;11.036;2023-07-20T10:18:22;19.20;99.90
5059;DHT22;2548;52.050;11.036;2023-07-20T10:20:51;19.50;99.90
5059;DHT22;2548;52.050;11.036;2023-07-20T10:23:21;19.90;99.90
5059;DHT22;2548;52.050;11.036;2023-07-20T10:25:50;20.30;99.90
5059;DHT22;2548;52.050;11.036;2023-07-20T10:28:17;20.50;99.90
5059;DHT22;2548;52.050;11.036;2023-07-20T10:30:46;20.60;99.90
5059;DHT22;2548;52.050;11.036;2023-07-20T10:33:14;20.40;99.90
5059;DHT22;2548;52.050;11.036;2023-07-20T10:35:51;20.60;99.90
5059;DHT22;2548;52.050;11.036;2023-07-20T10:38:18;20.80;99.90
5059;DHT22;2548;52.050;11.036;2023-07-20T10:40:54;20.90;99.90
5059;DHT22;2548;52.050;11.036;2023-07-20T10:43:22;21.00;99.90
5059;DHT22;2548;52.050;11.036;2023-07-20T10:45:52;21.00;99.90
5059;DHT22;2548;52.050;11.036;2023-07-20T10:48:21;21.30;99.90
5059;DHT22;2548;52.050;11.036;2023-07-20T10:51:13;21.50;99.90
5059;DHT22;2548;52.050;11.036;2023-07-20T10:53:41;21.20;99.90
5059;DHT22;2548;52.050;11.036;2023-07-20T10:56:11;20.80;99.90
5059;DHT22;2548;52.050;11.036;2023-07-20T10:58:39;20.80;99.90
5059;DHT22;2548;52.050;11.036;2023-07-20T11:01:09;20.90;99.90
5059;DHT22;2548;52.050;11.036;2023-07-20T11:03:40;21.00;99.90
5059;DHT22;2548;52.050;11.036;2023-07-20T11:06:30;21.30;99.90
5059;DHT22;2548;52.050;11.036;2023-07-20T11:09:09;21.60;99.90
5059;DHT22;2548;52.050;11.036;2023-07-20T11:11:38;21.80;99.90
5059;DHT22;2548;52.050;11.036;2023-07-20T11:14:07;22.10;99.90
5059;DHT22;2548;52.050;11.036;2023-07-20T11:16:38;22.10;99.90
5059;DHT22;2548;52.050;11.036;2023-07-20T11:19:13;21.80;99.90
5059;DHT22;2548;52.050;11.036;2023-07-20T11:21:43;22.00;99.90
5059;DHT22;2548;52.050;11.036;2023-07-20T11:24:11;22.20;99.90
5059;DHT22;2548;52.050;11.036;2023-07-20T11:26:40;22.00;99.90
5059;DHT22;2548;52.050;11.036;2023-07-20T11:29:08;22.20;99.90
5059;DHT22;2548;52.050;11.036;2023-07-20T11:31:38;22.50;99.90
5059;DHT22;2548;52.050;11.036;2023-07-20T11:34:06;22.60;99.90
5059;DHT22;2548;52.050;11.036;2023-07-20T11:36:34;22.40;99.90
5059;DHT22;2548;52.050;11.036;2023-07-20T11:39:02;22.40;99.90
5059;DHT22;2548;52.050;11.036;2023-07-20T11:41:31;22.30;99.90
5059;DHT22;2548;52.050;11.036;2023-07-20T11:43:59;22.10;99.90
5059;DHT22;2548;52.050;11.036;2023-07-20T11:46:27;22.10;99.90
5059;DHT22;2548;52.050;11.036;2023-07-20T11:48:58;22.20;99.90
5059;DHT22;2548;52.050;11.036;2023-07-20T11:51:30;22.10;99.90
5059;DHT22;2548;52.050;11.036;2023-07-20T11:53:58;21.80;99.90
5059;DHT22;2548;52.050;11.036;2023-07-20T11:56:26;21.60;99.90
5059;DHT22;2548;52.050;11.036;2023-07-20T11:58:55;21.30;99.90
5059;DHT22;2548;52.050;11.036;2023-07-20T12:01:25;21.20;99.90
5059;DHT22;2548;52.050;11.036;2023-07-20T12:03:55;21.50;99.90
5059;DHT22;2548;52.050;11.036;2023-07-20T12:06:27;22.00;99.90
5059;DHT22;2548;52.050;11.036;2023-07-20T12:08:55;22.30;99.90
5059;DHT22;2548;52.050;11.036;2023-07-20T12:11:42;22.50;99.90
5059;DHT22;2548;52.050;11.036;2023-07-20T12:14:10;22.80;99.90
5059;DHT22;2548;52.050;11.036;2023-07-20T12:16:37;22.90;99.90
5059;DHT22;2548;52.050;11.036;2023-07-20T12:19:06;22.80;99.90
5059;DHT22;2548;52.050;11.036;2023-07-20T12:21:36;22.50;99.90
5059;DHT22;2548;52.050;11.036;2023-07-20T12:24:05;22.20;99.90
5059;DHT22;2548;52.050;11.036;2023-07-20T12:26:33;21.90;99.90
5059;DHT22;2548;52.050;11.036;2023-07-20T12:29:01;21.70;99.90
5059;DHT22;2548;52.050;11.036;2023-07-20T12:31:30;21.40;99.90
5059;DHT22;2548;52.050;11.036;2023-07-20T12:33:58;21.30;99.90
5059;DHT22;2548;52.050;11.036;2023-07-20T12:36:26;21.50;99.90
5059;DHT22;2548;52.050;11.036;2023-07-20T12:38:55;21.90;99.90
5059;DHT22;2548;52.050;11.036;2023-07-20T12:41:21;22.30;99.90
5059;DHT22;2548;52.050;11.036;2023-07-20T12:43:49;22.70;99.90
5059;DHT22;2548;52.050;11.036;2023-07-20T12:46:16;23.10;99.90
5059;DHT22;2548;52.050;11.036;2023-07-20T12:48:44;23.20;99.90
5059;DHT22;2548;52.050;11.036;2023-07-20T12:51:12;23.40;99.90
5059;DHT22;2548;52.050;11.036;2023-07-20T12:53:39;23.50;99.90
5059;DHT22;2548;52.050;11.036;2023-07-20T12:56:08;23.70;99.90
5059;DHT22;2548;52.050;11.036;2023-07-20T12:58:35;23.50;99.90
5059;DHT22;2548;52.050;11.036;2023-07-20T13:01:03;23.50;99.90
5059;DHT22;2548;52.050;11.036;2023-07-20T13:03:30;23.60;99.90
5059;DHT22;2548;52.050;11.036;2023-07-20T13:05:59;23.60;99.90
5059;DHT22;2548;52.050;11.036;2023-07-20T13:08:27;23.30;99.90
5059;DHT22;2548;52.050;11.036;2023-07-20T13:10:54;23.00;99.90
5059;DHT22;2548;52.050;11.036;2023-07-20T13:13:23;22.60;99.90
5059;DHT22;2548;52.050;11.036;2023-07-20T13:15:50;22.20;99.90
5059;DHT22;2548;52.050;11.036;2023-07-20T13:18:19;22.00;99.90
5059;DHT22;2548;52.050;11.036;2023-07-20T13:20:46;21.90;99.90
5059;DHT22;2548;52.050;11.036;2023-07-20T13:23:13;22.20;99.90
5059;DHT22;2548;52.050;11.036;2023-07-20T13:25:41;22.60;99.90
5059;DHT22;2548;52.050;11.036;2023-07-20T13:28:08;22.90;99.90
5059;DHT22;2548;52.050;11.036;2023-07-20T13:30:37;22.60;99.90
5059;DHT22;2548;52.050;11.036;2023-07-20T13:33:05;22.40;99.90
5059;DHT22;2548;52.050;11.036;2023-07-20T13:35:32;22.00;99.90
5059;DHT22;2548;52.050;11.036;2023-07-20T13:38:00;21.80;99.90
5059;DHT22;2548;52.050;11.036;2023-07-20T13:40:28;21.70;99.90
5059;DHT22;2548;52.050;11.036;2023-07-20T13:42:56;21.60;99.90
5059;DHT22;2548;52.050;11.036;2023-07-20T13:45:23;21.60;99.90
5059;DHT22;2548;52.050;11.036;2023-07-20T13:47:52;21.70;99.90
5059;DHT22;2548;52.050;11.036;2023-07-20T13:50:20;21.90;99.90
5059;DHT22;2548;52.050;11.036;2023-07-20T13:52:47;21.90;99.90
5059;DHT22;2548;52.050;11.036;2023-07-20T13:55:15;21.90;99.90
5059;DHT22;2548;52.050;11.036;2023-07-20T13:57:42;21.80;99.90
5059;DHT22;2548;52.050;11.036;2023-07-20T14:00:11;21.70;99.90
5059;DHT22;2548;52.050;11.036;2023-07-20T14:02:40;21.70;99.90
5059;DHT22;2548;52.050;11.036;2023-07-20T14:05:09;21.60;99.90
5059;DHT22;2548;52.050;11.036;2023-07-20T14:07:36;21.50;99.90
5059;DHT22;2548;52.050;11.036;2023-07-20T14:10:05;21.30;99.90
5059;DHT22;2548;52.050;11.036;2023-07-20T14:12:32;21.20;99.90
5059;DHT22;2548;52.050;11.036;2023-07-20T14:14:59;21.20;99.90
5059;DHT22;2548;52.050;11.036;2023-07-20T14:17:27;21.20;99.90
5059;DHT22;2548;52.050;11.036;2023-07-20T14:19:54;21.20;99.90
5059;DHT22;2548;52.050;11.036;2023-07-20T14:22:23;21.70;99.90
5059;DHT22;2548;52.050;11.036;2023-07-20T14:24:51;22.30;99.90
5059;DHT22;2548;52.050;11.036;2023-07-20T14:27:18;22.80;99.90
5059;DHT22;2548;52.050;11.036;2023-07-20T14:29:46;22.90;99.90
5059;DHT22;2548;52.050;11.036;2023-07-20T14:32:16;22.70;99.90
5059;DHT22;2548;52.050;11.036;2023-07-20T14:34:44;22.50;99.90
5059;DHT22;2548;52.050;11.036;2023-07-20T14:37:17;22.20;99.90
5059;DHT22;2548;52.050;11.036;2023-07-20T14:39:46;22.00;99.90
5059;DHT22;2548;52.050;11.036;2023-07-20T14:42:17;21.80;99.90
5059;DHT22;2548;52.050;11.036;2023-07-20T14:44:54;21.70;99.90
5059;DHT22;2548;52.050;11.036;2023-07-20T14:47:21;21.80;99.90
5059;DHT22;2548;52.050;11.036;2023-07-20T14:49:52;22.20;99.90
5059;DHT22;2548;52.050;11.036;2023-07-20T14:52:20;22.40;99.90
5059;DHT22;2548;52.050;11.036;2023-07-20T14:54:49;22.50;99.90
5059;DHT22;2548;52.050;11.036;2023-07-20T14:57:22;22.40;99.90
5059;DHT22;2548;52.050;11.036;2023-07-20T14:59:56;22.20;99.90
5059;DHT22;2548;52.050;11.036;2023-07-20T15:02:27;22.10;99.90
5059;DHT22;2548;52.050;11.036;2023-07-20T15:04:54;21.90;99.90
5059;DHT22;2548;52.050;11.036;2023-07-20T15:07:23;21.80;99.90
5059;DHT22;2548;52.050;11.036;2023-07-20T15:09:54;21.80;99.90
5059;DHT22;2548;52.050;11.036;2023-07-20T15:12:22;22.00;99.90
5059;DHT22;2548;52.050;11.036;2023-07-20T15:15:02;22.00;99.90
5059;DHT22;2548;52.050;11.036;2023-07-20T15:17:37;21.90;99.90
5059;DHT22;2548;52.050;11.036;2023-07-20T15:20:07;21.80;99.90
5059;DHT22;2548;52.050;11.036;2023-07-20T15:22:35;21.60;99.90
5059;DHT22;2548;52.050;11.036;2023-07-20T15:25:07;21.50;99.90
5059;DHT22;2548;52.050;11.036;2023-07-20T15:27:40;21.50;99.90
5059;DHT22;2548;52.050;11.036;2023-07-20T15:30:10;21.70;99.90
5059;DHT22;2548;52.050;11.036;2023-07-20T15:32:39;22.20;99.90
5059;DHT22;2548;52.050;11.036;2023-07-20T15:35:09;22.50;99.90
5059;DHT22;2548;52.050;11.036;2023-07-20T15:37:40;22.50;99.90
5059;DHT22;2548;52.050;11.036;2023-07-20T15:40:18;22.30;99.90
5059;DHT22;2548;52.050;11.036;2023-07-20T15:42:48;22.10;99.90
5059;DHT22;2548;52.050;11.036;2023-07-20T15:45:19;22.00;99.90
5059;DHT22;2548;52.050;11.036;2023-07-20T15:47:52;22.20;99.90
5059;DHT22;2548;52.050;11.036;2023-07-20T15:50:26;22.20;99.90
5059;DHT22;2548;52.050;11.036;2023-07-20T15:53:00;22.10;99.90
5059;DHT22;2548;52.050;11.036;2023-07-20T15:55:29;22.00;99.90
5059;DHT22;2548;52.050;11.036;2023-07-20T15:57:57;22.10;99.90
5059;DHT22;2548;52.050;11.036;2023-07-20T16:00:25;22.40;99.90
5059;DHT22;2548;52.050;11.036;2023-07-20T16:02:52;22.60;99.90
5059;DHT22;2548;52.050;11.036;2023-07-20T16:05:22;22.70;99.90
5059;DHT22;2548;52.050;11.036;2023-07-20T16:07:50;22.70;99.90
5059;DHT22;2548;52.050;11.036;2023-07-20T16:10:18;22.60;99.90